Time;durP1;ratioP1;P1;durP2;ratioP2;P2;SDS_P1;SDS_P2;PMS_P1;PMS_P2;Temp;Humidity;BMP_temperature;BMP_pressure;BME280_temperature;BME280_humidity;BME280_pressure;Samples;Min_cycle;Max_cycle;Signal;HPM_P1;HPM_P2
2023/11/14 00:00:40;;;;;;;2.47;0.98;;;;;;;21.24;38.94;99073.84;4495986;28;20045;-60
2023/11/14 00:02:50;;;;;;;2.00;0.90;;;;;;;21.24;38.93;99067.28;4496081;28;20038;-60
2023/11/14 00:05:01;;;;;;;2.90;0.90;;;;;;;21.24;39.01;99076.72;4495570;28;20038;-60
2023/11/14 00:07:11;;;;;;;3.72;1.23;;;;;;;21.24;39.44;99073.84;4496526;28;20562;-63
2023/11/14 00:09:21;;;;;;;3.13;1.10;;;;;;;21.23;39.17;99072.19;4476311;28;20043;-61
2023/11/14 00:11:34;;;;;;;3.40;1.20;;;;;;;21.24;38.84;99064.41;4495541;28;20022;-61
2023/11/14 00:13:46;;;;;;;3.33;1.00;;;;;;;21.23;38.94;99054.97;4494971;28;20129;-62
2023/11/14 00:15:56;;;;;;;2.95;1.25;;;;;;;21.22;38.80;99053.34;4494831;28;20072;-61
2023/11/14 00:18:06;;;;;;;2.20;1.10;;;;;;;21.24;38.85;99055.78;4495687;28;20033;-62
2023/11/14 00:20:17;;;;;;;2.80;1.00;;;;;;;21.23;39.25;99040.63;4493781;28;20050;-62
2023/11/14 00:22:28;;;;;;;2.30;1.00;;;;;;;21.24;39.23;99047.19;4495114;28;20899;-62
2023/11/14 00:24:39;;;;;;;3.97;1.20;;;;;;;21.22;38.94;99036.13;4494928;28;20034;-61
2023/11/14 00:26:49;;;;;;;2.53;1.02;;;;;;;21.24;38.77;99050.06;4486785;28;20042;-61
2023/11/14 00:29:00;;;;;;;2.58;1.00;;;;;;;21.22;39.06;99043.91;4478575;28;20039;-61
2023/11/14 00:31:10;;;;;;;2.58;0.95;;;;;;;21.22;38.82;99036.13;4478068;28;20113;-61
2023/11/14 00:33:21;;;;;;;3.47;1.20;;;;;;;21.23;39.07;99034.88;4477504;28;20525;-61
2023/11/14 00:35:32;;;;;;;3.53;1.10;;;;;;;21.22;38.56;99023.81;4486674;28;20042;-61
2023/11/14 00:37:42;;;;;;;2.95;1.17;;;;;;;21.23;38.51;99026.28;4483582;28;20038;-61
2023/11/14 00:39:54;;;;;;;2.53;1.02;;;;;;;21.22;38.86;99027.50;4477797;28;20038;-61
2023/11/14 00:42:04;;;;;;;3.78;1.10;;;;;;;21.21;38.80;99017.28;4477412;28;20043;-61
2023/11/14 00:44:15;;;;;;;2.63;1.10;;;;;;;21.22;38.50;99013.16;4495540;28;20029;-61
2023/11/14 00:46:26;;;;;;;2.90;1.13;;;;;;;21.22;38.78;99018.91;4481214;28;20046;-61
2023/11/14 00:48:36;;;;;;;2.97;1.20;;;;;;;21.22;38.76;99023.81;4481577;28;20030;-61
2023/11/14 00:50:46;;;;;;;3.05;1.08;;;;;;;21.22;38.53;99035.28;4480019;28;20031;-61
2023/11/14 00:52:57;;;;;;;3.03;1.10;;;;;;;21.23;38.70;99036.94;4499427;28;20551;-61
2023/11/14 00:55:07;;;;;;;2.40;1.00;;;;;;;21.15;38.68;99024.66;4481103;28;20038;-61
2023/11/14 00:57:18;;;;;;;3.00;1.05;;;;;;;21.21;38.75;99043.09;4479589;28;20058;-61
2023/11/14 00:59:29;;;;;;;2.75;1.10;;;;;;;21.20;38.56;99038.56;4499586;28;20180;-61
2023/11/14 01:01:39;;;;;;;3.10;0.98;;;;;;;21.21;38.32;99034.50;4479942;28;20043;-59
2023/11/14 01:03:49;;;;;;;2.35;0.93;;;;;;;21.21;38.62;99045.97;4496765;28;20507;-59
2023/11/14 01:06:00;;;;;;;2.78;1.20;;;;;;;21.20;38.57;99050.06;4480930;28;20089;-59
2023/11/14 01:08:11;;;;;;;2.25;0.73;;;;;;;21.22;38.44;99061.13;4498071;28;20133;-59
2023/11/14 01:10:21;;;;;;;2.35;1.00;;;;;;;21.20;38.60;99061.53;4481127;28;20137;-60
2023/11/14 01:12:32;;;;;;;2.28;1.08;;;;;;;21.22;38.31;99064.00;4498325;28;20500;-60
2023/11/14 01:14:42;;;;;;;2.30;0.90;;;;;;;21.20;38.32;99058.66;4479057;28;20127;-60
2023/11/14 01:16:53;;;;;;;2.70;0.80;;;;;;;21.20;38.63;99061.53;4479553;28;20456;-60
2023/11/14 01:19:04;;;;;;;2.45;1.00;;;;;;;21.21;38.69;99056.63;4497985;28;20527;-59
2023/11/14 01:21:16;;;;;;;3.55;1.02;;;;;;;21.20;38.63;99038.56;4479796;28;20125;-60
2023/11/14 01:23:26;;;;;;;3.33;1.13;;;;;;;21.21;38.36;99040.22;4479994;28;20046;-60
2023/11/14 01:25:39;;;;;;;2.78;1.13;;;;;;;21.19;38.26;99036.94;4479200;28;20039;-60
2023/11/14 01:27:49;;;;;;;2.67;0.93;;;;;;;21.20;38.50;99050.06;4483774;28;20026;-60
2023/11/14 01:29:59;;;;;;;3.50;1.10;;;;;;;21.20;38.08;99032.03;4479006;28;21295;-60
2023/11/14 01:32:10;;;;;;;2.63;1.08;;;;;;;21.19;38.61;99034.06;4488588;28;20172;-60
2023/11/14 01:34:20;;;;;;;2.95;1.13;;;;;;;21.20;37.99;99055.78;4479057;28;20141;-60
2023/11/14 01:36:31;;;;;;;4.10;1.13;;;;;;;21.21;38.13;99048.00;4497484;28;20041;-60
2023/11/14 01:38:41;;;;;;;2.10;0.95;;;;;;;21.20;38.22;99037.78;4497764;28;20502;-60
2023/11/14 01:40:52;;;;;;;3.72;1.02;;;;;;;21.19;38.45;99033.25;4489114;28;20031;-60
2023/11/14 01:43:03;;;;;;;2.83;1.02;;;;;;;21.19;38.04;99039.81;4480095;28;20185;-61
2023/11/14 01:45:13;;;;;;;3.60;1.10;;;;;;;21.19;38.51;99030.38;4491535;28;20189;-60
2023/11/14 01:47:24;;;;;;;2.78;1.00;;;;;;;21.19;38.42;99053.34;4497635;28;20606;-60
2023/11/14 01:49:36;;;;;;;1.73;0.90;;;;;;;21.17;38.70;99042.25;4497610;28;20054;-60
2023/11/14 01:51:47;;;;;;;2.60;1.10;;;;;;;21.20;38.22;99040.66;4480124;28;20582;-60
2023/11/14 01:53:57;;;;;;;3.08;1.20;;;;;;;21.19;38.56;99041.84;4497424;28;20030;-60
2023/11/14 01:56:08;;;;;;;3.55;1.10;;;;;;;21.14;38.45;99042.25;4478578;28;20050;-60
2023/11/14 01:58:19;;;;;;;3.08;1.08;;;;;;;21.20;38.67;99049.25;4487855;28;20105;-60
2023/11/14 02:00:30;;;;;;;1.98;0.98;;;;;;;21.18;38.57;99041.06;4494992;28;20042;-60
2023/11/14 02:02:41;;;;;;;2.65;1.00;;;;;;;21.17;38.72;99055.81;4486969;28;20878;-60
2023/11/14 02:04:53;;;;;;;2.38;1.00;;;;;;;21.13;38.43;99041.44;4479168;28;20061;-60
2023/11/14 02:07:06;;;;;;;3.65;1.10;;;;;;;21.18;38.80;99046.78;4479449;28;20065;-60
2023/11/14 02:09:17;;;;;;;2.35;1.02;;;;;;;21.17;38.41;99048.00;4496462;28;20060;-60
2023/11/14 02:11:28;;;;;;;3.33;1.30;;;;;;;21.18;38.54;99055.41;4495630;28;20038;-60
2023/11/14 02:13:42;;;;;;;1.75;0.93;;;;;;;21.18;38.33;99058.28;4485292;28;20038;-60
2023/11/14 02:15:53;;;;;;;3.50;0.90;;;;;;;21.18;38.70;99069.75;4478737;28;20082;-60
2023/11/14 02:18:03;;;;;;;2.45;1.20;;;;;;;21.18;38.59;99074.66;4477882;28;20125;-60
2023/11/14 02:20:14;;;;;;;3.08;1.10;;;;;;;21.18;38.67;99064.00;4488647;28;20022;-60
2023/11/14 02:22:25;;;;;;;3.70;0.93;;;;;;;21.13;38.95;99057.84;4479175;28;20067;-60
2023/11/14 02:24:40;;;;;;;2.30;1.00;;;;;;;21.19;38.94;99059.91;4478673;28;20050;-60
2023/11/14 02:26:51;;;;;;;3.10;1.20;;;;;;;21.19;39.25;99059.91;4472063;28;20038;-60
2023/11/14 02:29:01;;;;;;;2.95;1.17;;;;;;;21.11;38.83;99051.69;4483438;28;20622;-60
2023/11/14 02:31:12;;;;;;;3.80;1.15;;;;;;;21.19;39.42;99045.56;4478899;28;20174;-60
2023/11/14 02:33:22;;;;;;;2.55;1.15;;;;;;;21.19;39.00;99047.59;4494157;28;20043;-61
2023/11/14 02:35:33;;;;;;;4.72;1.23;;;;;;;21.15;39.11;99047.63;4477612;28;20050;-60
2023/11/14 02:37:45;;;;;;;3.03;1.10;;;;;;;21.12;39.25;99071.34;4478895;28;20114;-60
2023/11/14 02:39:56;;;;;;;3.33;1.10;;;;;;;21.19;39.15;99065.63;4496056;28;20620;-60
2023/11/14 02:42:07;;;;;;;2.20;1.05;;;;;;;21.19;39.25;99056.19;4491010;28;20037;-60
2023/11/14 02:44:17;;;;;;;2.50;1.00;;;;;;;21.19;39.41;99068.50;4481331;28;20044;-60
2023/11/14 02:46:28;;;;;;;3.42;1.20;;;;;;;21.12;39.06;99054.13;4482766;28;20121;-60
2023/11/14 02:48:38;;;;;;;2.90;1.00;;;;;;;21.18;39.41;99061.13;4478334;28;20034;-60
2023/11/14 02:50:54;;;;;;;2.58;0.93;;;;;;;21.09;38.95;99060.69;4479376;28;20054;-60
2023/11/14 02:53:04;;;;;;;1.80;0.87;;;;;;;21.18;39.04;99086.13;4496847;28;20073;-60
2023/11/14 02:55:15;;;;;;;3.60;1.08;;;;;;;21.17;39.26;99090.25;4482759;28;20114;-60
2023/11/14 02:57:25;;;;;;;3.28;1.20;;;;;;;21.12;39.22;99087.78;4496387;28;20039;-61
2023/11/14 02:59:36;;;;;;;2.30;1.10;;;;;;;21.18;38.89;99115.66;4496657;28;20049;-61
2023/11/14 03:01:46;;;;;;;3.20;1.00;;;;;;;21.18;39.06;99107.03;4477550;28;20464;-61
2023/11/14 03:03:57;;;;;;;1.98;0.98;;;;;;;21.13;38.96;99100.88;4489145;28;20038;-61
2023/11/14 03:06:08;;;;;;;3.17;1.10;;;;;;;21.17;39.29;99101.72;4495513;28;20193;-61
2023/11/14 03:08:18;;;;;;;3.25;1.10;;;;;;;21.16;39.23;99106.63;4477722;28;20043;-61
2023/11/14 03:10:32;;;;;;;3.28;1.10;;;;;;;21.16;38.89;99100.88;4496777;28;20396;-61
2023/11/14 03:12:42;;;;;;;2.53;0.90;;;;;;;21.16;38.90;99106.63;4495242;28;20089;-61
2023/11/14 03:14:53;;;;;;;1.77;0.98;;;;;;;21.11;39.21;99098.41;4495864;28;20069;-61
2023/11/14 03:17:04;;;;;;;2.28;0.98;;;;;;;21.17;39.21;99095.97;4478645;28;20109;-61
2023/11/14 03:19:14;;;;;;;3.85;1.10;;;;;;;21.16;39.21;99098.00;4497507;28;20042;-61
2023/11/14 03:21:24;;;;;;;2.42;1.23;;;;;;;21.13;39.00;99100.88;4483448;28;20038;-61
2023/11/14 03:23:35;;;;;;;3.35;1.10;;;;;;;21.15;39.37;99102.13;4480598;28;20030;-61
2023/11/14 03:25:45;;;;;;;2.90;1.10;;;;;;;21.16;38.81;99109.50;4496398;28;20037;-61
2023/11/14 03:27:58;;;;;;;3.28;1.13;;;;;;;21.16;39.06;99105.78;4478463;28;20039;-61
2023/11/14 03:30:09;;;;;;;2.95;1.08;;;;;;;21.16;38.84;99117.28;4478542;28;20026;-61
2023/11/14 03:32:19;;;;;;;3.08;1.38;;;;;;;21.16;38.98;99100.06;4478552;28;20496;-60
2023/11/14 03:34:30;;;;;;;4.28;1.17;;;;;;;21.05;38.90;99079.13;4486594;28;20065;-61
2023/11/14 03:36:40;;;;;;;3.00;1.20;;;;;;;21.15;39.31;99110.72;4487094;28;20046;-61
2023/11/14 03:38:51;;;;;;;3.03;1.10;;;;;;;21.16;39.23;99115.22;4476921;28;20035;-61
2023/11/14 03:41:02;;;;;;;2.85;1.20;;;;;;;21.16;39.15;99108.66;4463788;28;20556;-60
2023/11/14 03:43:12;;;;;;;2.45;0.80;;;;;;;21.16;38.90;99118.09;4477800;28;20074;-61
2023/11/14 03:45:22;;;;;;;2.92;1.05;;;;;;;21.15;38.98;99107.03;4477264;28;20047;-61
2023/11/14 03:47:33;;;;;;;2.80;1.10;;;;;;;21.16;38.81;99120.97;4494307;28;20116;-60
2023/11/14 03:49:43;;;;;;;3.65;1.10;;;;;;;21.16;38.76;99118.09;4494856;28;20113;-60
2023/11/14 03:51:54;;;;;;;3.35;1.27;;;;;;;21.15;38.78;99116.47;4471307;28;20035;-61
2023/11/14 03:54:05;;;;;;;2.90;1.02;;;;;;;21.15;39.26;99122.22;4477318;28;20112;-61
2023/11/14 03:56:15;;;;;;;2.65;1.27;;;;;;;21.16;39.46;99126.72;4496356;28;20046;-61
2023/11/14 03:58:27;;;;;;;2.78;0.98;;;;;;;21.16;39.42;99118.09;4496208;28;20602;-61
2023/11/14 04:00:37;;;;;;;2.58;0.90;;;;;;;21.16;39.86;99129.59;4492642;28;20125;-61
2023/11/14 04:02:47;;;;;;;3.63;1.00;;;;;;;21.15;40.13;99133.69;4477863;28;20077;-61
2023/11/14 04:04:58;;;;;;;2.80;1.10;;;;;;;21.16;39.90;99129.59;4494892;28;20033;-61
2023/11/14 04:07:09;;;;;;;3.53;1.10;;;;;;;21.17;39.82;99134.06;4488771;28;20038;-61
2023/11/14 04:09:20;;;;;;;3.70;1.10;;;;;;;21.17;39.96;99136.16;4495309;28;20141;-61
2023/11/14 04:11:31;;;;;;;3.42;1.00;;;;;;;21.17;39.84;99130.41;4497483;28;20094;-60
2023/11/14 04:13:42;;;;;;;3.28;1.10;;;;;;;21.17;39.99;99127.53;4487232;28;20038;-61
2023/11/14 04:15:53;;;;;;;3.80;1.20;;;;;;;21.17;40.28;99108.25;4476794;28;20134;-61
2023/11/14 04:18:03;;;;;;;3.35;1.13;;;;;;;21.16;39.98;99123.84;4496806;28;20105;-60
2023/11/14 04:20:14;;;;;;;2.45;0.85;;;;;;;21.16;40.05;99115.22;4480621;28;20045;-61
2023/11/14 04:22:24;;;;;;;3.65;1.10;;;;;;;21.17;40.02;99124.66;4492115;28;20062;-60
2023/11/14 04:24:35;;;;;;;2.85;1.05;;;;;;;21.16;39.93;99117.28;4497591;28;20041;-60
2023/11/14 04:29:12;;;;;;;3.08;1.02;;;;;;;21.15;40.19;99116.47;4636240;22;20161;-64
2023/11/14 04:31:22;;;;;;;2.70;1.10;;;;;;;21.13;40.23;99107.44;4533849;28;20043;-64
2023/11/14 04:33:32;;;;;;;2.63;1.10;;;;;;;21.13;40.44;99113.19;4524144;28;20398;-64
2023/11/14 04:35:43;;;;;;;2.33;0.80;;;;;;;21.13;40.04;99104.56;4533462;28;20045;-64
2023/11/14 04:37:56;;;;;;;3.30;1.02;;;;;;;21.16;39.92;99117.28;4515029;28;20360;-64
2023/11/14 04:40:07;;;;;;;2.97;1.00;;;;;;;21.15;39.88;99116.47;4532283;28;20111;-64
2023/11/14 04:42:17;;;;;;;3.17;1.10;;;;;;;21.15;40.02;99107.88;4532864;28;20114;-64
2023/11/14 04:44:28;;;;;;;2.90;1.00;;;;;;;21.15;40.08;99092.69;4530631;28;20026;-64
2023/11/14 04:46:44;;;;;;;3.75;1.30;;;;;;;21.15;39.84;99105.00;4535046;28;20029;-64
2023/11/14 04:48:55;;;;;;;3.95;1.50;;;;;;;21.15;39.83;99107.88;4514529;28;20030;-64
2023/11/14 04:51:06;;;;;;;3.47;1.20;;;;;;;21.13;39.96;99118.91;4531917;28;20033;-64
2023/11/14 04:53:16;;;;;;;2.60;1.00;;;;;;;21.15;39.76;99115.63;4532862;28;20040;-64
2023/11/14 04:55:26;;;;;;;2.40;1.17;;;;;;;21.09;39.22;99115.19;4533817;28;20041;-64
2023/11/14 04:57:37;;;;;;;3.70;1.20;;;;;;;21.13;39.71;99124.66;4533884;28;20601;-64
2023/11/14 04:59:48;;;;;;;3.38;1.20;;;;;;;21.14;39.26;99117.69;4534267;28;20048;-64
2023/11/14 05:01:58;;;;;;;2.60;1.20;;;;;;;21.14;39.20;99116.84;4533873;28;20037;-63
2023/11/14 05:04:09;;;;;;;2.58;1.15;;;;;;;21.10;39.11;99108.25;4532511;28;20045;-64
2023/11/14 05:06:19;;;;;;;3.33;1.20;;;;;;;21.14;39.46;99114.81;4533586;28;20396;-64
2023/11/14 05:08:30;;;;;;;3.83;1.35;;;;;;;21.13;38.92;99118.09;4533536;28;20041;-64
2023/11/14 05:10:41;;;;;;;3.38;1.10;;;;;;;21.14;38.94;99126.28;4534020;28;20017;-64
2023/11/14 05:12:51;;;;;;;3.20;1.35;;;;;;;21.13;39.20;99116.06;4534531;28;20543;-64
2023/11/14 05:15:02;;;;;;;3.35;1.10;;;;;;;21.08;39.11;99110.69;4533007;28;20017;-64
2023/11/14 05:17:13;;;;;;;3.25;1.10;;;;;;;21.08;38.86;99110.69;4533548;28;20033;-64
2023/11/14 05:19:23;;;;;;;4.15;1.08;;;;;;;21.12;38.91;99122.19;4518137;28;20046;-63
2023/11/14 05:21:35;;;;;;;4.28;1.15;;;;;;;21.14;39.18;99132.03;4533926;28;20037;-64
2023/11/14 05:23:45;;;;;;;3.58;1.13;;;;;;;21.11;39.58;99126.28;4533899;28;20092;-64
2023/11/14 05:25:55;;;;;;;2.22;1.15;;;;;;;21.13;39.31;99110.31;4535314;28;20085;-64
2023/11/14 05:28:06;;;;;;;2.30;1.13;;;;;;;21.11;39.33;99109.88;4534889;28;20024;-64
2023/11/14 05:30:16;;;;;;;3.05;1.30;;;;;;;21.10;39.62;99119.72;4534166;28;20478;-64
2023/11/14 05:32:27;;;;;;;2.65;0.95;;;;;;;21.13;39.61;99118.91;4533771;28;20030;-64
2023/11/14 05:34:37;;;;;;;2.70;1.00;;;;;;;21.09;39.52;99102.94;4533269;28;20026;-64
2023/11/14 05:36:48;;;;;;;3.33;1.20;;;;;;;21.13;39.40;99129.56;4533945;28;20053;-64
2023/11/14 05:38:58;;;;;;;3.00;1.00;;;;;;;21.13;39.53;99121.78;4533381;28;20041;-64
2023/11/14 05:41:09;;;;;;;2.10;1.02;;;;;;;21.13;39.88;99135.31;4533276;28;20075;-64
2023/11/14 05:43:20;;;;;;;2.60;1.10;;;;;;;21.09;39.73;99123.81;4532808;28;20095;-64
2023/11/14 05:45:31;;;;;;;2.90;1.10;;;;;;;21.12;39.51;99140.22;4533693;28;20112;-64
2023/11/14 05:47:41;;;;;;;2.72;1.10;;;;;;;21.13;39.61;99135.31;4533904;28;20136;-64
2023/11/14 05:49:52;;;;;;;1.38;0.85;;;;;;;21.02;39.54;99117.25;4532929;28;20029;-64
2023/11/14 05:52:02;;;;;;;2.15;1.00;;;;;;;21.11;39.32;99137.75;4533640;28;20500;-64
2023/11/14 05:54:13;;;;;;;2.55;1.00;;;;;;;21.13;39.68;99143.91;4532496;28;20064;-63
2023/11/14 05:56:23;;;;;;;1.95;1.10;;;;;;;21.08;39.56;99133.66;4533015;28;20045;-64
2023/11/14 05:58:34;;;;;;;2.95;1.33;;;;;;;21.10;40.02;99136.94;4533507;28;20075;-64
2023/11/14 06:00:44;;;;;;;2.53;1.00;;;;;;;21.09;39.35;99146.75;4531235;28;20083;-64
2023/11/14 06:02:54;;;;;;;3.33;1.00;;;;;;;21.11;39.81;99138.56;4533003;28;20037;-63
2023/11/14 06:05:05;;;;;;;2.67;1.10;;;;;;;21.10;39.94;99139.81;4532182;28;20042;-63
2023/11/14 06:07:17;;;;;;;3.25;1.23;;;;;;;21.12;39.55;99134.47;4533152;28;20096;-64
2023/11/14 06:09:27;;;;;;;2.53;1.08;;;;;;;21.12;39.69;99134.47;4533693;28;20881;-64
2023/11/14 06:11:37;;;;;;;3.00;1.00;;;;;;;21.10;39.69;99138.97;4533055;28;20037;-64
2023/11/14 06:13:48;;;;;;;3.30;1.20;;;;;;;21.11;39.33;99149.22;4534032;28;20068;-64
2023/11/14 06:15:58;;;;;;;2.33;1.10;;;;;;;21.10;39.42;99141.84;4534302;28;20045;-64
2023/11/14 06:18:09;;;;;;;2.35;1.08;;;;;;;21.11;39.27;99140.63;4533578;28;21008;-63
2023/11/14 06:20:21;;;;;;;3.22;1.13;;;;;;;21.08;39.75;99139.41;4535602;28;20531;-64
2023/11/14 06:22:32;;;;;;;2.63;1.10;;;;;;;21.02;39.53;99146.75;4532353;28;20690;-63
2023/11/14 06:24:42;;;;;;;2.63;1.00;;;;;;;21.13;39.92;99169.72;4533251;28;20051;-64
2023/11/14 06:26:53;;;;;;;2.22;0.90;;;;;;;21.11;39.81;99160.69;4532233;28;20037;-64
2023/11/14 06:29:04;;;;;;;2.90;1.25;;;;;;;21.12;39.67;99179.56;4533835;28;20627;-64
2023/11/14 06:31:14;;;;;;;2.08;1.10;;;;;;;21.12;39.65;99173.84;4531734;28;20056;-64
2023/11/14 06:33:25;;;;;;;3.17;1.23;;;;;;;21.12;39.69;99159.50;4532387;28;20065;-64
2023/11/14 06:35:36;;;;;;;2.30;1.00;;;;;;;21.12;39.60;99157.41;4532454;28;20048;-64
2023/11/14 06:37:46;;;;;;;2.92;1.00;;;;;;;21.12;39.91;99151.69;4533723;28;20032;-64
2023/11/14 06:39:57;;;;;;;3.80;1.20;;;;;;;21.11;39.94;99152.91;4534071;28;20080;-64
2023/11/14 06:42:07;;;;;;;3.40;1.20;;;;;;;21.11;40.03;99167.25;4532069;28;20037;-64
2023/11/14 06:44:21;;;;;;;3.63;1.10;;;;;;;21.13;40.09;99182.03;4532747;28;20616;-64
2023/11/14 06:46:33;;;;;;;4.18;1.00;;;;;;;21.11;40.10;99173.00;4534720;28;20037;-64
2023/11/14 06:48:43;;;;;;;3.28;1.20;;;;;;;21.13;39.78;99186.94;4534031;28;20068;-64
2023/11/14 06:50:54;;;;;;;3.28;1.10;;;;;;;21.12;40.11;99191.84;4532674;28;20057;-64
2023/11/14 06:53:07;;;;;;;3.63;1.23;;;;;;;21.12;39.99;99209.06;4518310;28;20041;-63
2023/11/14 06:55:17;;;;;;;2.53;1.00;;;;;;;21.12;40.15;99197.59;4518374;28;20572;-64
2023/11/14 06:57:27;;;;;;;3.45;1.10;;;;;;;21.12;40.36;99214.81;4532392;28;20042;-64
2023/11/14 06:59:38;;;;;;;2.25;0.90;;;;;;;21.10;40.21;99208.66;4533528;28;20111;-64
2023/11/14 07:01:50;;;;;;;2.35;1.00;;;;;;;21.12;40.43;99209.06;4533081;28;20040;-64
2023/11/14 07:04:00;;;;;;;2.53;1.13;;;;;;;21.10;40.12;99214.41;4533652;28;20042;-64
2023/11/14 07:06:11;;;;;;;4.30;1.25;;;;;;;21.13;40.31;99201.28;4532070;28;20046;-64
2023/11/14 07:08:22;;;;;;;3.33;1.08;;;;;;;21.11;40.18;99201.69;4532276;28;20632;-64
2023/11/14 07:10:32;;;;;;;2.40;1.10;;;;;;;21.11;40.36;99198.81;4532675;28;20041;-63
2023/11/14 07:12:43;;;;;;;3.05;1.02;;;;;;;21.12;40.01;99206.19;4532631;28;20033;-64
2023/11/14 07:14:53;;;;;;;3.67;1.20;;;;;;;21.12;40.37;99214.00;4533668;28;20116;-64
2023/11/14 07:17:04;;;;;;;3.03;1.17;;;;;;;21.11;40.43;99224.66;4533877;28;20037;-64
2023/11/14 07:19:15;;;;;;;3.90;1.40;;;;;;;21.10;40.00;99217.28;4532899;28;20033;-64
2023/11/14 07:21:25;;;;;;;3.20;1.10;;;;;;;21.12;40.08;99208.25;4532658;28;20025;-64
2023/11/14 07:23:35;;;;;;;3.65;1.27;;;;;;;21.13;39.88;99210.72;4531595;28;20033;-64
2023/11/14 07:25:47;;;;;;;3.08;1.05;;;;;;;21.13;40.28;99221.38;4533305;28;20040;-64
2023/11/14 07:27:57;;;;;;;2.58;0.98;;;;;;;21.11;39.93;99218.06;4532007;28;20048;-64
2023/11/14 07:30:12;;;;;;;2.90;1.20;;;;;;;21.12;39.92;99214.81;4514004;28;20049;-64
2023/11/14 07:32:23;;;;;;;3.17;1.02;;;;;;;21.14;39.78;99228.75;4533464;28;20123;-64
2023/11/14 07:34:34;;;;;;;2.45;1.05;;;;;;;21.13;40.40;99227.94;4533137;28;20033;-64
2023/11/14 07:36:44;;;;;;;2.75;1.33;;;;;;;21.11;39.89;99232.44;4532066;28;20057;-65
2023/11/14 07:38:54;;;;;;;2.58;1.10;;;;;;;21.12;39.84;99237.75;4532798;28;20033;-64
2023/11/14 07:41:10;;;;;;;3.10;1.27;;;;;;;21.13;40.03;99233.69;4531160;28;20030;-63
2023/11/14 07:43:24;;;;;;;2.95;1.10;;;;;;;21.13;39.83;99245.16;4531503;28;20033;-63
2023/11/14 07:45:35;;;;;;;3.38;1.33;;;;;;;21.10;39.61;99240.22;4531541;28;20041;-63
2023/11/14 07:47:46;;;;;;;3.22;1.17;;;;;;;21.12;39.94;99242.69;4513774;28;20883;-64
2023/11/14 07:49:56;;;;;;;2.75;1.00;;;;;;;21.12;39.88;99239.81;4532137;28;20153;-63
2023/11/14 07:52:07;;;;;;;2.90;1.20;;;;;;;21.13;39.47;99250.91;4531318;28;20052;-63
2023/11/14 07:54:20;;;;;;;3.40;1.10;;;;;;;21.12;39.83;99248.44;4533658;28;20038;-63
2023/11/14 07:56:30;;;;;;;2.88;1.02;;;;;;;21.12;39.48;99243.50;4531936;28;20032;-63
2023/11/14 07:58:41;;;;;;;3.03;1.10;;;;;;;21.08;39.35;99228.31;4531602;28;20040;-65
2023/11/14 08:00:56;;;;;;;3.22;1.13;;;;;;;21.11;39.56;99233.25;4532364;28;20029;-64
2023/11/14 08:03:06;;;;;;;3.38;1.35;;;;;;;21.12;39.56;99242.69;4531927;28;20033;-64
2023/11/14 08:05:17;;;;;;;2.50;1.15;;;;;;;21.12;39.77;99254.16;4531484;28;20038;-64
2023/11/14 08:07:27;;;;;;;2.80;1.10;;;;;;;21.12;39.92;99257.84;4530759;28;20116;-65
2023/11/14 08:09:38;;;;;;;1.83;0.95;;;;;;;21.13;40.17;99239.41;4532254;28;20075;-64
2023/11/14 08:11:48;;;;;;;3.13;0.90;;;;;;;21.10;39.96;99234.50;4531507;28;20549;-65
2023/11/14 08:13:59;;;;;;;2.90;0.90;;;;;;;21.12;39.97;99232.03;4532465;28;20038;-65
2023/11/14 08:16:09;;;;;;;3.33;1.23;;;;;;;21.08;39.89;99236.09;4530208;28;20485;-65
2023/11/14 08:18:20;;;;;;;1.83;0.90;;;;;;;21.09;40.11;99250.03;4516930;28;20045;-64
2023/11/14 08:20:30;;;;;;;2.72;1.17;;;;;;;21.10;40.02;99240.22;4532350;28;20037;-65
2023/11/14 08:22:41;;;;;;;3.42;1.10;;;;;;;21.12;39.69;99254.97;4530917;28;20041;-64
2023/11/14 08:24:52;;;;;;;2.75;1.15;;;;;;;21.13;40.17;99248.03;4530847;28;20038;-64
2023/11/14 08:27:04;;;;;;;3.63;1.20;;;;;;;21.11;40.36;99246.78;4532162;28;20092;-64
2023/11/14 08:29:15;;;;;;;3.25;1.00;;;;;;;21.11;40.34;99241.88;4531073;28;20076;-64
2023/11/14 08:31:25;;;;;;;3.30;1.10;;;;;;;21.12;40.36;99231.22;4532015;28;20128;-64
2023/11/14 08:33:36;;;;;;;4.10;1.17;;;;;;;21.12;40.11;99229.16;4531905;28;20060;-64
2023/11/14 08:35:46;;;;;;;2.53;1.00;;;;;;;21.11;40.64;99230.38;4514607;28;20049;-64
2023/11/14 08:37:56;;;;;;;3.03;1.13;;;;;;;21.12;40.35;99229.16;4531046;28;20032;-64
2023/11/14 08:40:09;;;;;;;3.22;1.27;;;;;;;21.08;40.23;99228.31;4532241;28;20029;-64
2023/11/14 08:42:20;;;;;;;3.63;1.40;;;;;;;21.12;40.26;99229.16;4531028;28;20048;-64
2023/11/14 08:44:30;;;;;;;2.83;1.13;;;;;;;21.12;40.18;99229.16;4529685;28;20044;-64
2023/11/14 08:46:41;;;;;;;2.88;1.00;;;;;;;21.09;40.51;99229.97;4532089;28;20022;-64
2023/11/14 08:48:51;;;;;;;3.22;1.17;;;;;;;21.13;40.79;99242.28;4532236;28;20119;-64
2023/11/14 08:51:02;;;;;;;3.88;1.13;;;;;;;21.14;40.41;99235.31;4532579;28;20037;-64
2023/11/14 08:53:13;;;;;;;3.20;1.05;;;;;;;21.13;40.43;99239.41;4512832;28;20022;-64
2023/11/14 08:55:25;;;;;;;2.83;0.90;;;;;;;21.13;40.07;99245.16;4531340;28;20029;-64
2023/11/14 08:57:35;;;;;;;2.42;1.00;;;;;;;21.17;40.61;99251.72;4532078;28;20653;-65
2023/11/14 08:59:46;;;;;;;2.30;1.08;;;;;;;21.14;40.24;99257.44;4531926;28;20099;-64
2023/11/14 09:01:56;;;;;;;4.80;1.10;;;;;;;21.14;40.22;99258.28;4531682;28;20041;-64
2023/11/14 09:04:10;;;;;;;3.58;1.35;;;;;;;21.15;40.55;99259.94;4530533;28;20029;-64
2023/11/14 09:06:20;;;;;;;2.83;1.10;;;;;;;21.11;40.19;99264.81;4500949;28;20132;-65
2023/11/14 09:08:31;;;;;;;2.65;1.10;;;;;;;21.13;39.88;99264.41;4534455;28;20037;-64
2023/11/14 09:10:43;;;;;;;3.40;1.45;;;;;;;21.12;40.10;99274.25;4534116;28;20034;-64
2023/11/14 09:12:54;;;;;;;2.47;1.00;;;;;;;21.15;40.26;99277.16;4534042;28;20482;-64
2023/11/14 09:15:05;;;;;;;3.13;1.15;;;;;;;21.13;39.93;99264.41;4534691;28;20029;-65
2023/11/14 09:17:16;;;;;;;2.80;1.10;;;;;;;21.13;39.86;99273.84;4533685;28;20072;-64
2023/11/14 09:19:27;;;;;;;3.13;0.93;;;;;;;21.11;39.85;99263.97;4525283;28;20946;-64
2023/11/14 09:21:37;;;;;;;4.45;1.10;;;;;;;21.14;39.56;99281.22;4533047;28;20127;-63
2023/11/14 09:23:47;;;;;;;2.45;1.00;;;;;;;21.13;39.61;99276.72;4534475;28;20121;-63
2023/11/14 09:25:59;;;;;;;3.33;1.33;;;;;;;21.15;39.88;99276.31;4533602;28;20124;-63
2023/11/14 09:28:10;;;;;;;3.05;1.05;;;;;;;21.11;39.77;99282.03;4533941;28;20033;-63
2023/11/14 09:30:20;;;;;;;3.00;1.10;;;;;;;21.10;39.90;99286.13;4533062;28;20065;-63
2023/11/14 09:32:31;;;;;;;2.47;1.10;;;;;;;21.13;40.55;99291.06;4534679;28;20021;-63
2023/11/14 09:34:41;;;;;;;3.95;1.25;;;;;;;21.12;40.58;99272.19;4532892;28;20434;-63
2023/11/14 09:36:51;;;;;;;2.13;1.00;;;;;;;21.14;40.75;99289.84;4534081;28;20041;-63
2023/11/14 09:39:03;;;;;;;2.97;1.00;;;;;;;21.12;40.60;99292.28;4533656;28;20033;-63
2023/11/14 09:41:13;;;;;;;3.28;1.23;;;;;;;21.12;40.60;99275.06;4533766;28;20044;-63
2023/11/14 09:43:24;;;;;;;2.75;1.00;;;;;;;21.15;40.13;99279.19;4535048;28;20044;-63
2023/11/14 09:45:35;;;;;;;2.80;1.27;;;;;;;21.15;40.38;99282.88;4526839;28;20047;-63
2023/11/14 09:47:46;;;;;;;2.75;1.15;;;;;;;21.13;40.05;99275.88;4532384;28;20111;-63
2023/11/14 09:49:58;;;;;;;2.22;1.08;;;;;;;21.12;40.39;99269.31;4534585;28;20032;-64
2023/11/14 09:52:12;;;;;;;3.20;1.10;;;;;;;21.14;40.54;99281.22;4532887;28;20054;-63
2023/11/14 09:54:23;;;;;;;2.40;1.10;;;;;;;21.17;40.31;99282.47;4533206;28;20033;-63
2023/11/14 09:56:34;;;;;;;2.90;1.02;;;;;;;21.04;40.24;99261.91;4531494;28;20513;-64
2023/11/14 09:58:44;;;;;;;2.78;1.08;;;;;;;21.15;40.11;99271.41;4532660;28;20431;-63
2023/11/14 10:00:56;;;;;;;3.83;1.10;;;;;;;21.15;40.30;99271.41;4532054;28;20026;-64
2023/11/14 10:03:07;;;;;;;5.25;1.30;;;;;;;21.15;40.00;99264.84;4531644;28;20103;-64
2023/11/14 10:05:18;;;;;;;2.30;1.20;;;;;;;21.16;40.53;99264.44;4532306;28;20087;-64
2023/11/14 10:07:31;;;;;;;3.38;1.17;;;;;;;21.16;40.08;99272.22;4532299;28;20108;-64
2023/11/14 10:09:42;;;;;;;3.50;1.23;;;;;;;21.15;40.26;99271.41;4534035;28;20064;-64
2023/11/14 10:11:54;;;;;;;2.90;1.35;;;;;;;21.11;40.49;99264.81;4533311;28;20038;-64
2023/11/14 10:14:04;;;;;;;2.08;1.30;;;;;;;21.11;40.06;99259.06;4533803;28;20584;-64
2023/11/14 10:16:19;;;;;;;3.50;1.48;;;;;;;21.13;40.55;99261.53;4533714;28;20032;-64
2023/11/14 10:18:30;;;;;;;3.58;1.20;;;;;;;21.12;40.58;99254.16;4533343;28;20061;-64